Time;durP1;ratioP1;P1;durP2;ratioP2;P2;SDS_P1;SDS_P2;PMS_P1;PMS_P2;Temp;Humidity;BMP_temperature;BMP_pressure;BME280_temperature;BME280_humidity;BME280_pressure;Samples;Min_cycle;Max_cycle;Signal;HPM_P1;HPM_P2
2023/06/28 00:00:06;;;;;;;0.32;0.32;;;13.40;99.90;;;;;;5072325;28;20044;-69
2023/06/28 00:02:38;;;;;;;0.30;0.30;;;13.20;99.90;;;;;;5071622;28;20413;-69
2023/06/28 00:05:04;;;;;;;0.30;0.30;;;13.30;99.90;;;;;;5069089;28;20188;-69
2023/06/28 00:07:31;;;;;;;0.30;0.30;;;13.20;99.90;;;;;;5078808;28;20547;-69
2023/06/28 00:09:57;;;;;;;0.30;0.30;;;13.30;99.90;;;;;;5076893;28;20059;-69
2023/06/28 00:12:23;;;;;;;0.30;0.30;;;13.30;99.90;;;;;;5078052;28;20451;-69
2023/06/28 00:14:49;;;;;;;0.30;0.30;;;13.40;99.90;;;;;;5071747;28;20048;-69
2023/06/28 00:17:15;;;;;;;0.30;0.30;;;13.30;99.90;;;;;;5067542;28;20037;-69
2023/06/28 00:19:47;;;;;;;0.50;0.50;;;13.30;99.90;;;;;;5068862;28;20119;-69
2023/06/28 00:22:14;;;;;;;0.40;0.40;;;13.30;99.90;;;;;;5073798;28;20123;-69
2023/06/28 00:24:39;;;;;;;0.38;0.38;;;13.30;99.90;;;;;;5075423;28;20047;-69
2023/06/28 00:27:05;;;;;;;0.95;0.50;;;13.30;99.90;;;;;;5071641;28;20408;-69
2023/06/28 00:29:31;;;;;;;0.40;0.40;;;13.30;99.90;;;;;;5070641;28;20568;-69
2023/06/28 00:31:56;;;;;;;0.30;0.30;;;13.30;99.90;;;;;;5075498;28;20044;-69
2023/06/28 00:34:22;;;;;;;0.40;0.40;;;13.30;99.90;;;;;;5062896;28;20047;-69
2023/06/28 00:36:47;;;;;;;0.30;0.30;;;13.30;99.90;;;;;;5069496;28;21397;-69
2023/06/28 00:39:13;;;;;;;0.30;0.30;;;13.30;99.90;;;;;;5080133;28;20052;-69
2023/06/28 00:41:39;;;;;;;0.30;0.30;;;13.30;99.90;;;;;;5074370;28;20551;-71
2023/06/28 00:44:06;;;;;;;0.30;0.30;;;13.40;99.90;;;;;;5077833;28;20393;-69
2023/06/28 00:46:32;;;;;;;0.40;0.40;;;13.30;99.90;;;;;;5075456;28;20048;-69
2023/06/28 00:48:58;;;;;;;0.20;0.20;;;13.30;99.90;;;;;;5074853;28;20088;-69
2023/06/28 00:51:26;;;;;;;0.30;0.30;;;13.20;99.90;;;;;;5079015;28;20664;-69
2023/06/28 00:53:52;;;;;;;0.30;0.30;;;13.30;99.90;;;;;;5073261;28;20036;-69
2023/06/28 00:56:18;;;;;;;0.32;0.32;;;13.20;99.90;;;;;;5081966;28;20032;-69
2023/06/28 00:58:44;;;;;;;0.38;0.38;;;13.20;99.90;;;;;;5072646;28;20097;-69
2023/06/28 01:01:10;;;;;;;0.30;0.30;;;13.30;99.90;;;;;;5070520;28;20072;-69
2023/06/28 01:03:36;;;;;;;0.43;0.43;;;13.20;99.90;;;;;;5067257;28;20068;-69
2023/06/28 01:06:02;;;;;;;0.20;0.20;;;13.20;99.90;;;;;;5065350;28;20041;-69
2023/06/28 01:08:29;;;;;;;0.30;0.30;;;13.20;99.90;;;;;;5071514;28;20072;-69
2023/06/28 01:10:54;;;;;;;0.75;0.73;;;13.20;99.90;;;;;;5075154;28;20461;-69
2023/06/28 01:13:21;;;;;;;0.55;0.55;;;13.20;99.90;;;;;;5059178;28;20040;-69
2023/06/28 01:15:47;;;;;;;0.30;0.30;;;13.20;99.90;;;;;;5074134;28;20083;-69
2023/06/28 01:18:13;;;;;;;0.30;0.30;;;13.20;99.90;;;;;;5074449;28;20073;-69
2023/06/28 01:20:38;;;;;;;0.30;0.30;;;13.20;99.90;;;;;;5081204;28;20040;-69
2023/06/28 01:23:05;;;;;;;0.35;0.35;;;13.10;99.90;;;;;;5064367;28;20045;-69
2023/06/28 01:25:30;;;;;;;0.52;0.52;;;13.10;99.90;;;;;;5075259;28;20036;-69
2023/06/28 01:27:57;;;;;;;0.30;0.30;;;13.10;99.90;;;;;;5073640;28;20421;-69
2023/06/28 01:30:23;;;;;;;0.40;0.40;;;13.00;99.90;;;;;;5076802;28;20068;-69
2023/06/28 01:32:49;;;;;;;0.30;0.30;;;13.10;99.90;;;;;;5070803;28;20059;-69
2023/06/28 01:35:15;;;;;;;0.30;0.30;;;13.10;99.90;;;;;;5067105;28;20048;-69
2023/06/28 01:37:42;;;;;;;0.30;0.30;;;13.00;99.90;;;;;;5077028;28;20401;-69
2023/06/28 01:40:10;;;;;;;0.28;0.28;;;13.10;99.90;;;;;;5073351;28;20067;-69
2023/06/28 01:42:37;;;;;;;0.40;0.40;;;13.00;99.90;;;;;;5068622;28;20528;-71
2023/06/28 01:45:03;;;;;;;0.22;0.22;;;13.00;99.90;;;;;;5066846;28;20052;-69
2023/06/28 01:47:29;;;;;;;0.30;0.30;;;12.90;99.90;;;;;;5065985;28;20165;-69
2023/06/28 01:49:55;;;;;;;0.40;0.40;;;13.00;99.90;;;;;;5069689;28;20087;-69
2023/06/28 01:52:21;;;;;;;0.40;0.40;;;13.00;99.90;;;;;;5069596;28;20166;-69
2023/06/28 01:54:47;;;;;;;0.35;0.35;;;13.00;99.90;;;;;;5073481;28;20135;-69
2023/06/28 01:57:13;;;;;;;0.43;0.43;;;13.10;99.90;;;;;;5068932;28;20052;-69
2023/06/28 01:59:38;;;;;;;0.38;0.38;;;12.90;99.90;;;;;;5074192;28;20047;-69
2023/06/28 02:02:04;;;;;;;0.35;0.35;;;13.00;99.90;;;;;;5068449;28;20131;-69
2023/06/28 02:04:30;;;;;;;0.20;0.20;;;12.90;99.90;;;;;;5070778;28;20094;-69
2023/06/28 02:06:57;;;;;;;0.50;0.50;;;13.00;99.90;;;;;;5065839;28;20135;-69
2023/06/28 02:09:22;;;;;;;0.20;0.20;;;12.90;99.90;;;;;;5061698;28;20049;-69
2023/06/28 02:11:48;;;;;;;0.30;0.30;;;13.00;99.90;;;;;;5060901;28;20042;-69
2023/06/28 02:14:14;;;;;;;0.40;0.40;;;12.90;99.90;;;;;;5069523;28;20044;-69
2023/06/28 02:16:41;;;;;;;0.60;0.60;;;13.00;99.90;;;;;;5066657;28;20040;-69
2023/06/28 02:19:06;;;;;;;0.30;0.30;;;13.00;99.90;;;;;;5076853;28;20052;-71
2023/06/28 02:21:32;;;;;;;0.35;0.35;;;12.90;99.90;;;;;;5056046;28;20048;-69
2023/06/28 02:23:58;;;;;;;0.30;0.30;;;12.90;99.90;;;;;;5078522;28;20412;-69
2023/06/28 02:26:23;;;;;;;0.30;0.30;;;12.90;99.90;;;;;;5070190;28;20159;-69
2023/06/28 02:28:49;;;;;;;0.30;0.30;;;12.90;99.90;;;;;;5068809;28;20037;-69
2023/06/28 02:31:16;;;;;;;0.30;0.30;;;12.90;99.90;;;;;;5069831;28;20040;-69
2023/06/28 02:33:42;;;;;;;0.30;0.30;;;12.90;99.90;;;;;;5070835;28;20044;-69
2023/06/28 02:36:07;;;;;;;0.77;0.77;;;12.90;99.90;;;;;;5069249;28;20044;-69
2023/06/28 02:38:33;;;;;;;0.30;0.30;;;13.00;99.90;;;;;;5060790;28;20045;-69
2023/06/28 02:40:59;;;;;;;0.55;0.55;;;12.90;99.90;;;;;;5067201;28;20086;-69
2023/06/28 02:43:25;;;;;;;0.25;0.25;;;12.90;99.90;;;;;;5072167;28;20037;-69
2023/06/28 02:45:51;;;;;;;0.40;0.40;;;13.00;99.90;;;;;;5066738;28;20403;-69
2023/06/28 02:48:16;;;;;;;0.30;0.30;;;13.00;99.90;;;;;;5071310;28;20036;-70
2023/06/28 02:50:42;;;;;;;0.43;0.43;;;13.00;99.90;;;;;;5064578;28;20048;-70
2023/06/28 02:53:08;;;;;;;0.40;0.40;;;13.00;99.90;;;;;;5066780;28;20054;-69
2023/06/28 02:55:34;;;;;;;0.30;0.30;;;13.00;99.90;;;;;;5074804;28;20144;-70
2023/06/28 02:58:00;;;;;;;0.50;0.50;;;13.10;99.90;;;;;;5070126;28;20128;-69
2023/06/28 03:00:25;;;;;;;0.50;0.47;;;13.20;99.90;;;;;;5067617;28;20045;-69
2023/06/28 03:02:51;;;;;;;0.30;0.30;;;13.20;99.90;;;;;;5045182;28;20405;-69
2023/06/28 03:05:17;;;;;;;0.65;0.65;;;13.00;99.90;;;;;;5063150;28;20053;-69
2023/06/28 03:07:42;;;;;;;0.35;0.35;;;13.10;99.90;;;;;;5065782;28;20048;-69
2023/06/28 03:10:08;;;;;;;0.43;0.43;;;13.30;99.90;;;;;;5068330;28;20055;-69
2023/06/28 03:12:34;;;;;;;0.40;0.40;;;13.10;99.90;;;;;;5069114;28;20504;-69
2023/06/28 03:14:59;;;;;;;0.30;0.30;;;13.30;99.90;;;;;;5071411;28;20048;-69
2023/06/28 03:17:25;;;;;;;0.40;0.40;;;13.20;99.90;;;;;;5069419;28;20461;-69
2023/06/28 03:19:50;;;;;;;0.30;0.30;;;13.30;99.90;;;;;;5068813;28;20401;-69
2023/06/28 03:22:16;;;;;;;0.30;0.30;;;13.30;99.90;;;;;;5077661;28;20418;-69
2023/06/28 03:24:42;;;;;;;0.35;0.35;;;13.40;99.90;;;;;;5070857;28;20054;-69
2023/06/28 03:27:08;;;;;;;0.40;0.40;;;13.40;99.90;;;;;;5072001;28;20044;-69
2023/06/28 03:29:33;;;;;;;0.30;0.30;;;13.40;99.90;;;;;;5065045;28;20036;-69
2023/06/28 03:31:59;;;;;;;0.65;0.65;;;13.40;99.90;;;;;;5066687;28;20155;-69
2023/06/28 03:34:25;;;;;;;0.30;0.30;;;13.40;99.90;;;;;;5075592;28;20052;-69
2023/06/28 03:36:50;;;;;;;0.30;0.30;;;13.50;99.90;;;;;;5067849;28;20047;-69
2023/06/28 03:39:18;;;;;;;2.05;0.52;;;13.50;99.90;;;;;;5070724;28;20032;-69
2023/06/28 03:41:43;;;;;;;0.40;0.40;;;13.60;99.90;;;;;;5064419;28;20045;-71
2023/06/28 03:44:09;;;;;;;0.40;0.40;;;13.60;99.90;;;;;;5065403;28;20040;-69
2023/06/28 03:46:35;;;;;;;0.40;0.40;;;13.60;99.90;;;;;;5067354;28;20044;-69
2023/06/28 03:49:01;;;;;;;0.73;0.73;;;13.70;99.90;;;;;;5068944;28;20569;-71
2023/06/28 03:51:26;;;;;;;0.30;0.30;;;13.60;99.90;;;;;;5068585;28;20051;-68
2023/06/28 03:53:53;;;;;;;0.57;0.57;;;13.70;99.90;;;;;;5067951;28;20044;-68
2023/06/28 03:56:19;;;;;;;0.35;0.35;;;13.80;99.90;;;;;;5068393;28;20497;-67
2023/06/28 03:58:45;;;;;;;0.20;0.20;;;13.80;99.90;;;;;;5074669;28;20706;-68
2023/06/28 04:01:11;;;;;;;0.63;0.63;;;13.80;99.90;;;;;;5058039;28;20160;-69
2023/06/28 04:03:36;;;;;;;0.43;0.43;;;13.80;99.90;;;;;;5071158;28;20037;-68
2023/06/28 04:06:02;;;;;;;0.52;0.40;;;13.90;99.90;;;;;;5069606;28;20048;-68
2023/06/28 04:08:28;;;;;;;0.30;0.30;;;13.70;99.90;;;;;;5071194;28;20160;-68
2023/06/28 04:10:54;;;;;;;0.30;0.30;;;14.00;99.90;;;;;;5072810;28;20409;-68
2023/06/28 04:13:20;;;;;;;0.32;0.32;;;14.00;99.90;;;;;;5076483;28;20124;-68
2023/06/28 04:15:45;;;;;;;0.50;0.50;;;14.00;99.90;;;;;;5064875;28;20147;-70
2023/06/28 04:18:11;;;;;;;0.30;0.30;;;14.10;99.90;;;;;;5071646;28;20524;-70
2023/06/28 04:20:37;;;;;;;0.50;0.50;;;14.10;99.90;;;;;;5063695;28;20032;-70
2023/06/28 04:23:02;;;;;;;0.32;0.32;;;14.10;99.90;;;;;;5060588;28;20452;-70
2023/06/28 04:25:28;;;;;;;0.40;0.40;;;14.20;99.90;;;;;;5073034;28;20412;-70
2023/06/28 04:27:54;;;;;;;0.63;0.63;;;14.10;99.90;;;;;;5066093;28;20048;-70
2023/06/28 04:30:19;;;;;;;0.20;0.20;;;14.10;99.90;;;;;;5070004;28;20502;-70
2023/06/28 04:32:45;;;;;;;0.50;0.50;;;14.20;99.90;;;;;;5070759;28;20383;-70
2023/06/28 04:35:14;;;;;;;0.30;0.30;;;14.20;99.90;;;;;;5071591;28;20052;-70
2023/06/28 04:37:43;;;;;;;1.23;1.00;;;14.20;99.90;;;;;;5069393;28;20514;-70
2023/06/28 04:40:09;;;;;;;0.85;0.85;;;14.30;99.90;;;;;;5073265;28;20048;-70
2023/06/28 04:42:35;;;;;;;0.38;0.38;;;14.30;99.90;;;;;;5076750;28;20417;-68
2023/06/28 04:45:00;;;;;;;0.93;0.93;;;14.30;99.90;;;;;;5073920;28;20045;-70
2023/06/28 04:47:27;;;;;;;0.40;0.40;;;14.40;99.90;;;;;;5074912;28;20036;-70
2023/06/28 04:49:54;;;;;;;0.50;0.50;;;14.50;99.90;;;;;;5068439;28;20059;-70
2023/06/28 04:52:21;;;;;;;0.73;0.73;;;14.50;99.90;;;;;;5067620;28;20040;-70
2023/06/28 04:54:50;;;;;;;0.30;0.30;;;14.50;99.90;;;;;;5080374;28;20141;-68
2023/06/28 04:57:17;;;;;;;0.40;0.40;;;14.40;99.90;;;;;;5072028;28;20045;-70
2023/06/28 04:59:43;;;;;;;0.40;0.40;;;14.50;99.90;;;;;;5078835;28;20157;-68
2023/06/28 05:02:09;;;;;;;0.40;0.40;;;14.60;99.90;;;;;;5068464;28;20131;-68
2023/06/28 05:04:37;;;;;;;0.40;0.40;;;14.60;99.90;;;;;;5073644;28;20055;-68
2023/06/28 05:07:07;;;;;;;0.30;0.30;;;14.60;99.90;;;;;;5072612;28;20072;-70
2023/06/28 05:09:34;;;;;;;0.43;0.43;;;14.70;99.90;;;;;;5072116;28;20052;-70
2023/06/28 05:12:01;;;;;;;0.30;0.30;;;14.80;99.90;;;;;;5064336;28;20086;-70
2023/06/28 05:14:29;;;;;;;0.40;0.40;;;14.70;99.90;;;;;;5075906;28;20041;-70
2023/06/28 05:16:55;;;;;;;0.20;0.20;;;14.80;99.90;;;;;;5061226;28;20044;-71
2023/06/28 05:19:22;;;;;;;0.30;0.30;;;14.80;99.90;;;;;;5072995;28;20049;-70
2023/06/28 05:21:48;;;;;;;0.30;0.30;;;14.90;99.90;;;;;;5071012;28;20053;-71
2023/06/28 05:24:16;;;;;;;0.40;0.40;;;14.90;99.90;;;;;;5069061;28;20067;-70
2023/06/28 05:26:42;;;;;;;0.40;0.40;;;14.80;99.90;;;;;;5072939;28;20055;-71
2023/06/28 05:29:07;;;;;;;0.40;0.40;;;15.00;99.90;;;;;;5070883;28;20052;-70
2023/06/28 05:31:36;;;;;;;0.30;0.30;;;15.00;99.90;;;;;;5073344;28;20166;-70
2023/06/28 05:34:02;;;;;;;0.57;0.57;;;15.00;99.90;;;;;;5071524;28;20047;-71
2023/06/28 05:36:27;;;;;;;0.50;0.50;;;15.00;99.90;;;;;;5067966;28;20049;-71
2023/06/28 05:38:55;;;;;;;0.30;0.30;;;15.10;99.90;;;;;;5076168;28;20518;-70
2023/06/28 05:41:21;;;;;;;0.73;0.73;;;15.10;99.90;;;;;;5073680;28;20470;-70
2023/06/28 05:43:47;;;;;;;0.40;0.40;;;15.10;99.90;;;;;;5058901;28;20072;-71
2023/06/28 05:46:13;;;;;;;0.40;0.40;;;15.10;99.90;;;;;;5070285;28;20044;-70
2023/06/28 05:48:38;;;;;;;0.38;0.38;;;15.30;99.90;;;;;;5078152;28;20500;-71
2023/06/28 05:51:09;;;;;;;0.30;0.30;;;15.30;99.90;;;;;;5075874;28;20818;-70
2023/06/28 05:53:37;;;;;;;0.63;0.60;;;15.30;99.90;;;;;;5076017;28;20056;-70
2023/06/28 05:56:03;;;;;;;0.30;0.30;;;15.30;99.90;;;;;;5070937;28;20124;-71
2023/06/28 05:58:29;;;;;;;0.68;0.68;;;15.30;99.90;;;;;;5075880;28;20044;-71
2023/06/28 06:00:55;;;;;;;0.40;0.40;;;15.40;99.90;;;;;;5065760;28;20094;-70
2023/06/28 06:03:20;;;;;;;0.40;0.40;;;15.40;99.90;;;;;;5068004;28;20044;-71
2023/06/28 06:05:46;;;;;;;1.00;0.75;;;15.50;99.90;;;;;;5070190;28;20051;-70
2023/06/28 06:08:12;;;;;;;0.40;0.40;;;15.60;99.90;;;;;;5067789;28;20075;-70
2023/06/28 06:10:38;;;;;;;0.30;0.30;;;15.60;99.90;;;;;;5062347;28;20113;-70
2023/06/28 06:13:03;;;;;;;0.52;0.52;;;15.60;99.90;;;;;;5057868;28;20489;-70
2023/06/28 06:15:29;;;;;;;0.40;0.40;;;15.70;99.90;;;;;;5067458;28;20041;-70
2023/06/28 06:17:55;;;;;;;0.50;0.50;;;15.70;99.90;;;;;;5065700;28;20111;-70
2023/06/28 06:20:21;;;;;;;0.40;0.40;;;15.80;99.90;;;;;;5067244;28;20040;-70
2023/06/28 06:22:46;;;;;;;0.45;0.45;;;15.90;99.90;;;;;;5076386;28;20396;-70
2023/06/28 06:25:12;;;;;;;1.50;1.40;;;15.80;99.90;;;;;;5069995;28;20053;-70
2023/06/28 06:27:38;;;;;;;2.53;1.45;;;15.90;99.90;;;;;;5072700;28;20051;-70
2023/06/28 06:30:04;;;;;;;0.60;0.60;;;16.10;99.90;;;;;;5068125;28;20045;-70
2023/06/28 06:32:29;;;;;;;0.30;0.30;;;16.00;99.90;;;;;;5076937;28;20051;-70
2023/06/28 06:34:58;;;;;;;0.57;0.57;;;16.10;99.90;;;;;;5061631;28;20032;-70
2023/06/28 06:37:24;;;;;;;1.02;0.93;;;16.30;99.90;;;;;;5072330;28;20172;-70
2023/06/28 06:39:51;;;;;;;0.52;0.52;;;16.20;99.90;;;;;;5069346;28;20604;-70
2023/06/28 06:42:16;;;;;;;0.60;0.60;;;16.30;99.90;;;;;;5068410;28;20048;-70
2023/06/28 06:44:42;;;;;;;0.43;0.43;;;16.40;99.90;;;;;;5071392;28;20044;-70
2023/06/28 06:47:08;;;;;;;0.30;0.30;;;16.40;99.90;;;;;;5073390;28;20379;-70
2023/06/28 06:49:34;;;;;;;0.40;0.40;;;16.50;99.90;;;;;;5080899;28;20044;-70
2023/06/28 06:51:59;;;;;;;0.65;0.65;;;16.50;99.90;;;;;;5062034;28;20036;-70
2023/06/28 06:54:28;;;;;;;0.50;0.50;;;16.60;99.90;;;;;;5062380;28;20032;-70
2023/06/28 06:56:54;;;;;;;0.40;0.40;;;16.60;99.90;;;;;;5074324;28;20081;-71
2023/06/28 06:59:23;;;;;;;0.88;0.85;;;16.80;99.90;;;;;;5070382;28;20484;-70
2023/06/28 07:01:50;;;;;;;0.20;0.20;;;16.80;99.90;;;;;;5070288;28;20047;-70
2023/06/28 07:04:17;;;;;;;0.50;0.50;;;16.80;99.90;;;;;;5072521;28;20032;-71
2023/06/28 07:06:46;;;;;;;0.65;0.65;;;16.90;99.90;;;;;;5068641;28;20056;-70
2023/06/28 07:09:13;;;;;;;0.30;0.30;;;16.90;99.90;;;;;;5058421;28;20064;-71
2023/06/28 07:11:38;;;;;;;0.28;0.28;;;16.90;99.90;;;;;;5074553;28;20044;-69
2023/06/28 07:14:04;;;;;;;0.40;0.40;;;17.00;99.90;;;;;;5060446;28;20051;-70
2023/06/28 07:16:30;;;;;;;0.30;0.30;;;17.10;99.90;;;;;;5065921;28;20094;-70
2023/06/28 07:18:55;;;;;;;0.52;0.52;;;17.00;99.90;;;;;;5062466;28;20334;-70
2023/06/28 07:21:22;;;;;;;0.40;0.40;;;17.10;99.90;;;;;;5071144;28;20371;-70
2023/06/28 07:23:47;;;;;;;0.30;0.30;;;17.30;99.90;;;;;;5074931;28;20045;-70
2023/06/28 07:26:17;;;;;;;0.38;0.38;;;17.20;99.90;;;;;;5068000;28;20387;-70
2023/06/28 07:28:43;;;;;;;0.75;0.75;;;17.30;99.90;;;;;;5066587;28;20044;-70
2023/06/28 07:31:09;;;;;;;0.30;0.30;;;17.20;99.90;;;;;;5070591;28;20131;-70
2023/06/28 07:33:35;;;;;;;0.43;0.43;;;17.30;99.90;;;;;;5068082;28;20124;-70
2023/06/28 07:36:00;;;;;;;0.43;0.43;;;17.20;99.90;;;;;;5070025;28;20461;-71
2023/06/28 07:38:26;;;;;;;0.40;0.40;;;17.30;99.90;;;;;;5066490;28;20044;-71
2023/06/28 07:40:53;;;;;;;0.30;0.30;;;17.10;99.90;;;;;;5065435;28;20051;-70
2023/06/28 07:43:19;;;;;;;0.35;0.35;;;17.10;99.90;;;;;;5067025;28;20070;-71
2023/06/28 07:45:46;;;;;;;0.32;0.32;;;17.00;99.90;;;;;;5071419;28;20040;-72
2023/06/28 07:48:11;;;;;;;0.35;0.35;;;17.00;99.90;;;;;;5069347;28;20063;-71
2023/06/28 07:50:37;;;;;;;0.98;0.98;;;17.10;99.90;;;;;;5068719;28;20041;-72
2023/06/28 07:53:03;;;;;;;0.52;0.52;;;17.10;99.90;;;;;;5074046;28;20098;-71
2023/06/28 07:55:29;;;;;;;0.60;0.60;;;16.80;99.90;;;;;;5054955;28;20135;-71
2023/06/28 07:57:57;;;;;;;0.35;0.35;;;17.00;99.90;;;;;;5059776;28;20400;-70
2023/06/28 08:00:24;;;;;;;0.38;0.38;;;16.80;99.90;;;;;;5065075;28;20048;-71
2023/06/28 08:02:50;;;;;;;3.10;1.27;;;16.80;99.90;;;;;;5068164;28;20051;-72
2023/06/28 08:05:16;;;;;;;0.60;0.60;;;16.70;99.90;;;;;;5064949;28;20298;-72
2023/06/28 08:07:41;;;;;;;0.60;0.60;;;16.70;99.90;;;;;;5066858;28;20122;-72
2023/06/28 08:10:08;;;;;;;1.05;0.82;;;16.70;99.90;;;;;;5062042;28;20066;-72
2023/06/28 08:12:33;;;;;;;1.05;0.65;;;16.70;99.90;;;;;;5062222;28;20055;-73
2023/06/28 08:14:59;;;;;;;0.50;0.50;;;16.70;99.90;;;;;;5069710;28;20040;-72
2023/06/28 08:17:24;;;;;;;1.83;0.47;;;16.80;99.90;;;;;;5081484;28;20493;-71
2023/06/28 08:19:50;;;;;;;0.40;0.40;;;16.80;99.90;;;;;;5062164;28;20495;-71
2023/06/28 08:22:16;;;;;;;0.55;0.55;;;16.80;99.90;;;;;;5070886;28;20123;-72
2023/06/28 08:24:42;;;;;;;0.50;0.50;;;16.90;99.90;;;;;;5072391;28;20886;-71
2023/06/28 08:27:08;;;;;;;0.38;0.38;;;17.00;99.90;;;;;;5077712;28;20040;-70
2023/06/28 08:29:34;;;;;;;1.17;1.13;;;17.00;99.90;;;;;;5072605;28;20398;-71
2023/06/28 08:31:59;;;;;;;0.50;0.50;;;17.10;99.90;;;;;;5071862;28;20551;-71
2023/06/28 08:34:25;;;;;;;0.75;0.75;;;17.00;99.90;;;;;;5064890;28;20066;-71
2023/06/28 08:36:51;;;;;;;0.93;0.93;;;17.20;99.90;;;;;;5071645;28;20076;-71
2023/06/28 08:39:16;;;;;;;1.63;0.68;;;17.50;99.90;;;;;;5079003;28;20088;-71
2023/06/28 08:41:43;;;;;;;1.25;0.77;;;17.30;99.90;;;;;;5074843;28;20044;-71
2023/06/28 08:44:12;;;;;;;0.73;0.73;;;17.40;99.90;;;;;;5075107;28;20497;-71
2023/06/28 08:46:42;;;;;;;0.70;0.70;;;17.60;99.90;;;;;;5070703;28;20045;-71
2023/06/28 08:49:08;;;;;;;1.85;0.70;;;17.70;99.90;;;;;;5066319;28;20037;-71
2023/06/28 08:51:34;;;;;;;0.57;0.57;;;17.50;99.90;;;;;;5080496;28;20481;-70
2023/06/28 08:54:00;;;;;;;0.68;0.50;;;17.60;99.90;;;;;;5068723;28;20044;-70
2023/06/28 08:56:27;;;;;;;0.55;0.55;;;17.60;99.90;;;;;;5073950;28;20050;-71
2023/06/28 08:58:54;;;;;;;0.40;0.40;;;17.90;99.90;;;;;;5072189;28;20052;-71
2023/06/28 09:01:23;;;;;;;0.88;0.88;;;17.80;99.90;;;;;;5075068;28;20043;-71
2023/06/28 09:03:49;;;;;;;0.43;0.43;;;18.00;99.90;;;;;;5066053;28;20549;-71
2023/06/28 09:06:15;;;;;;;1.30;0.73;;;18.00;99.90;;;;;;5077573;28;20093;-71
2023/06/28 09:08:42;;;;;;;0.40;0.40;;;17.80;99.90;;;;;;5077612;28;20401;-71
2023/06/28 09:11:08;;;;;;;0.63;0.63;;;17.80;99.90;;;;;;5076348;28;20051;-71
2023/06/28 09:13:34;;;;;;;0.85;0.85;;;17.80;99.90;;;;;;5069911;28;20037;-71
2023/06/28 09:16:01;;;;;;;0.85;0.85;;;17.90;99.90;;;;;;5073664;28;20056;-71
2023/06/28 09:18:26;;;;;;;0.30;0.30;;;18.00;99.90;;;;;;5077857;28;20044;-71
2023/06/28 09:20:53;;;;;;;1.58;1.00;;;18.00;99.90;;;;;;5070417;28;20506;-71
2023/06/28 09:23:27;;;;;;;0.23;0.23;;;18.10;99.90;;;;;;5073997;28;20086;-70
2023/06/28 09:25:53;;;;;;;0.65;0.65;;;18.00;99.90;;;;;;5067649;28;20299;-71
2023/06/28 09:28:21;;;;;;;0.40;0.40;;;18.20;99.90;;;;;;5069052;28;20076;-71
2023/06/28 09:30:56;;;;;;;0.40;0.40;;;18.30;99.90;;;;;;5079231;28;20090;-71
2023/06/28 09:33:23;;;;;;;0.65;0.65;;;18.10;99.90;;;;;;5055749;28;20060;-71
2023/06/28 09:35:59;;;;;;;1.23;0.98;;;18.20;99.90;;;;;;5069670;28;20052;-71
2023/06/28 09:38:26;;;;;;;0.70;0.70;;;18.00;99.90;;;;;;5064734;28;20049;-71
2023/06/28 09:41:02;;;;;;;0.98;0.93;;;17.90;99.90;;;;;;5066326;28;20060;-71
2023/06/28 09:43:35;;;;;;;0.38;0.38;;;18.00;99.90;;;;;;5067760;28;20048;-71
2023/06/28 09:46:15;;;;;;;0.40;0.40;;;18.00;99.90;;;;;;5073335;28;20045;-71
2023/06/28 09:48:43;;;;;;;1.00;0.75;;;18.00;99.90;;;;;;5077047;28;20048;-71
2023/06/28 09:51:09;;;;;;;0.70;0.70;;;18.10;99.90;;;;;;5067780;28;20139;-71
2023/06/28 09:53:49;;;;;;;1.65;0.98;;;18.00;99.90;;;;;;5074771;28;20056;-71
2023/06/28 09:56:16;;;;;;;0.40;0.40;;;18.10;99.90;;;;;;5066953;28;20093;-71
2023/06/28 09:58:47;;;;;;;0.47;0.47;;;18.00;99.90;;;;;;5067456;28;20059;-71
2023/06/28 10:01:15;;;;;;;1.80;0.82;;;18.10;99.90;;;;;;5067911;28;20127;-71
2023/06/28 10:03:43;;;;;;;0.75;0.63;;;18.20;99.90;;;;;;5072406;28;20051;-71
2023/06/28 10:06:10;;;;;;;0.63;0.63;;;18.20;99.90;;;;;;5075424;28;20557;-71
2023/06/28 10:08:36;;;;;;;1.48;0.90;;;18.30;99.90;;;;;;5060636;28;20510;-71
2023/06/28 10:11:06;;;;;;;0.40;0.40;;;18.30;99.90;;;;;;5068012;28;20045;-71
2023/06/28 10:13:32;;;;;;;0.68;0.68;;;18.10;99.90;;;;;;5072607;28;20421;-71
2023/06/28 10:16:17;;;;;;;6.32;1.70;;;18.10;99.90;;;;;;5076846;28;20074;-71
2023/06/28 10:18:43;;;;;;;0.40;0.40;;;18.00;99.90;;;;;;5064229;28;20048;-71
2023/06/28 10:21:10;;;;;;;1.10;0.82;;;18.30;99.90;;;;;;5071816;28;20052;-71
2023/06/28 10:23:39;;;;;;;0.77;0.77;;;18.40;99.90;;;;;;5067180;28;20127;-72
2023/06/28 10:26:06;;;;;;;1.30;1.27;;;18.20;99.90;;;;;;5079133;28;20052;-71
2023/06/28 10:28:33;;;;;;;0.70;0.60;;;18.30;99.90;;;;;;5070305;28;20052;-71
2023/06/28 10:31:00;;;;;;;0.88;0.88;;;18.30;99.90;;;;;;5065090;28;20052;-71
2023/06/28 10:33:31;;;;;;;1.25;1.15;;;18.20;99.90;;;;;;5068830;28;20123;-71
2023/06/28 10:36:00;;;;;;;0.85;0.80;;;18.30;99.90;;;;;;5051254;28;20068;-71
2023/06/28 10:38:28;;;;;;;1.60;1.50;;;18.40;99.90;;;;;;5057516;28;20091;-71
2023/06/28 10:40:54;;;;;;;1.25;1.15;;;18.20;99.90;;;;;;5070829;28;20526;-71
2023/06/28 10:43:22;;;;;;;1.52;1.42;;;18.40;99.90;;;;;;5058335;28;20044;-71
2023/06/28 10:45:48;;;;;;;0.90;0.90;;;18.50;99.90;;;;;;5068379;28;20044;-71
2023/06/28 10:48:21;;;;;;;0.40;0.40;;;18.30;99.90;;;;;;5069069;28;20483;-71
2023/06/28 10:50:48;;;;;;;2.17;1.98;;;18.50;99.90;;;;;;5072813;28;20040;-71
2023/06/28 10:53:25;;;;;;;1.85;1.75;;;18.50;99.90;;;;;;5067809;28;20060;-71
2023/06/28 10:56:13;;;;;;;1.02;0.82;;;18.30;99.90;;;;;;5069240;28;20045;-71
2023/06/28 10:58:39;;;;;;;;;;;18.40;99.90;;;;;;5060352;28;20037;-71
2023/06/28 11:01:07;;;;;;;0.60;0.60;;;18.40;99.90;;;;;;5053375;28;19924;-71
2023/06/28 11:03:43;;;;;;;1.05;1.05;;;18.20;99.90;;;;;;5060725;28;20433;-71
2023/06/28 11:06:11;;;;;;;1.05;1.05;;;18.20;99.90;;;;;;5073035;28;20052;-72
2023/06/28 11:08:39;;;;;;;0.60;0.60;;;18.20;99.90;;;;;;5074699;28;20040;-71
2023/06/28 11:11:06;;;;;;;0.93;0.93;;;18.40;99.90;;;;;;5070941;28;20051;-71
2023/06/28 11:13:32;;;;;;;1.50;1.40;;;18.20;99.90;;;;;;5075020;28;20812;-71
2023/06/28 11:16:09;;;;;;;1.63;0.85;;;18.30;99.90;;;;;;5075376;28;20122;-71
2023/06/28 11:18:36;;;;;;;0.50;0.50;;;18.20;99.90;;;;;;5067576;28;20466;-71
2023/06/28 11:21:02;;;;;;;0.70;0.70;;;18.20;99.90;;;;;;5062517;28;20045;-71
2023/06/28 11:23:35;;;;;;;1.15;0.55;;;18.30;99.90;;;;;;5064367;28;20517;-71
2023/06/28 11:26:02;;;;;;;0.52;0.52;;;18.40;99.90;;;;;;5068849;28;20120;-71
2023/06/28 11:28:30;;;;;;;1.30;1.20;;;18.20;99.90;;;;;;5063458;28;20051;-71
2023/06/28 11:31:11;;;;;;;0.45;0.45;;;18.20;99.90;;;;;;5064948;28;20053;-71
2023/06/28 11:33:39;;;;;;;1.13;1.02;;;18.30;99.90;;;;;;5055516;28;20049;-71
2023/06/28 11:36:06;;;;;;;0.98;0.70;;;18.40;99.90;;;;;;5064832;28;20052;-71
2023/06/28 11:38:32;;;;;;;1.30;1.20;;;18.30;99.90;;;;;;5061114;28;20134;-71
2023/06/28 11:40:59;;;;;;;1.15;1.05;;;18.20;99.90;;;;;;5066619;28;20067;-72
2023/06/28 11:43:25;;;;;;;1.23;1.15;;;18.50;99.90;;;;;;5063502;28;20060;-71
2023/06/28 11:45:51;;;;;;;2.70;1.05;;;18.30;99.90;;;;;;5074547;28;20040;-72
2023/06/28 11:48:23;;;;;;;0.57;0.57;;;18.30;99.90;;;;;;5060096;28;20581;-71
2023/06/28 11:50:57;;;;;;;0.93;0.93;;;18.30;99.90;;;;;;5073376;28;20124;-71
2023/06/28 11:53:24;;;;;;;0.73;0.73;;;18.50;99.90;;;;;;5075033;28;20044;-71
2023/06/28 11:55:51;;;;;;;1.75;0.70;;;18.50;99.90;;;;;;5062467;28;20083;-71
2023/06/28 11:58:30;;;;;;;0.63;0.63;;;18.60;99.90;;;;;;5058054;28;20036;-71
2023/06/28 12:00:57;;;;;;;1.38;1.27;;;18.40;99.90;;;;;;5068932;28;20040;-71
2023/06/28 12:03:37;;;;;;;0.82;0.82;;;18.30;99.90;;;;;;5072653;28;20127;-72
2023/06/28 12:06:05;;;;;;;0.80;0.80;;;18.50;99.90;;;;;;5072624;28;20056;-72
2023/06/28 12:08:34;;;;;;;0.73;0.73;;;18.50;99.90;;;;;;5075274;28;20044;-72
2023/06/28 12:11:06;;;;;;;0.75;0.75;;;18.60;99.90;;;;;;5070084;28;20795;-71
2023/06/28 12:13:32;;;;;;;0.65;0.65;;;18.70;99.90;;;;;;5074723;28;20072;-71
2023/06/28 12:16:09;;;;;;;1.38;1.27;;;18.70;99.90;;;;;;5066218;28;20087;-72
2023/06/28 12:18:58;;;;;;;0.47;0.47;;;18.50;99.90;;;;;;5068860;28;20505;-72
2023/06/28 12:21:24;;;;;;;0.80;0.80;;;18.60;99.90;;;;;;5070549;28;20048;-72
2023/06/28 12:23:51;;;;;;;1.50;1.40;;;18.70;99.90;;;;;;5076055;28;20087;-71
2023/06/28 12:26:22;;;;;;;1.20;1.20;;;18.60;99.90;;;;;;5072247;28;20080;-72
2023/06/28 12:28:50;;;;;;;0.75;0.75;;;18.60;99.90;;;;;;5077444;28;20041;-72
2023/06/28 12:31:16;;;;;;;;;;;18.90;99.90;;;;;;5071020;28;20123;-71
2023/06/28 12:33:42;;;;;;;0.50;0.50;;;19.00;99.90;;;;;;5077230;28;20011;-72
2023/06/28 12:36:19;;;;;;;0.57;0.57;;;19.00;99.90;;;;;;5070988;28;20037;-72
2023/06/28 12:38:45;;;;;;;0.55;0.50;;;18.90;99.90;;;;;;5071080;28;20037;-72
2023/06/28 12:41:14;;;;;;;0.47;0.47;;;18.90;99.90;;;;;;5058479;28;20033;-71
2023/06/28 12:43:41;;;;;;;0.47;0.47;;;19.10;99.90;;;;;;5062700;28;20133;-72
2023/06/28 12:46:09;;;;;;;2.63;1.52;;;19.30;99.90;;;;;;5066248;28;20044;-72